createdAt,value
2017-05-23T00:00:04.511Z,0
2017-05-23T00:01:14.534Z,0
2017-05-23T00:02:24.448Z,0
2017-05-23T00:03:34.675Z,0
2017-05-23T00:04:44.918Z,0
2017-05-23T00:08:27.516Z,0
2017-05-23T00:12:10.117Z,0
2017-05-23T00:13:20.027Z,0
2017-05-23T00:14:29.324Z,0
2017-05-23T00:15:38.947Z,0
2017-05-23T00:16:48.864Z,0
2017-05-23T00:17:59.099Z,0
2017-05-23T00:19:09.362Z,0
2017-05-23T00:20:19.582Z,0
2017-05-23T00:21:29.496Z,0
2017-05-23T00:22:39.710Z,0
2017-05-23T00:23:49.652Z,0
2017-05-23T00:24:59.414Z,0
2017-05-23T00:26:09.631Z,0
2017-05-23T00:27:19.847Z,0
2017-05-23T00:28:29.766Z,0
2017-05-23T00:29:39.685Z,0
2017-05-23T00:30:50.034Z,0
2017-05-23T00:32:00.264Z,0
2017-05-23T00:33:10.509Z,0
2017-05-23T00:34:20.809Z,0
2017-05-23T00:35:30.109Z,0
2017-05-23T00:36:40.340Z,0
2017-05-23T00:37:50.260Z,0
2017-05-23T00:39:00.178Z,0
2017-05-23T00:40:09.483Z,0
2017-05-23T00:41:19.091Z,0
2017-05-23T00:42:29.677Z,0
2017-05-23T00:43:39.610Z,0
2017-05-23T00:44:49.544Z,0
2017-05-23T00:45:59.763Z,0
2017-05-23T00:47:09.980Z,0
2017-05-23T00:48:20.349Z,0
2017-05-23T00:49:30.568Z,0
2017-05-23T00:50:40.178Z,0
2017-05-23T00:51:50.396Z,0
2017-05-23T00:53:00.317Z,0
2017-05-23T00:54:10.531Z,0
2017-05-23T00:55:20.753Z,0
2017-05-23T00:56:30.687Z,0
2017-05-23T00:57:40.606Z,0
2017-05-23T00:58:49.605Z,0
2017-05-23T00:59:59.336Z,0
2017-05-23T01:01:09.241Z,0
2017-05-23T01:02:19.232Z,0
2017-05-23T01:03:29.469Z,0
2017-05-23T01:04:39.379Z,0
2017-05-23T01:05:49.968Z,0
2017-05-23T01:06:59.873Z,0
2017-05-23T01:08:09.480Z,0
2017-05-23T01:09:19.775Z,0
2017-05-23T01:10:29.384Z,0
2017-05-23T01:11:38.987Z,0
2017-05-23T01:12:49.208Z,0
2017-05-23T01:13:59.430Z,0
2017-05-23T01:15:09.655Z,0
2017-05-23T01:16:19.880Z,0
2017-05-23T01:17:29.630Z,0
2017-05-23T01:18:39.907Z,0
2017-05-23T01:19:50.124Z,0
2017-05-23T01:21:00.334Z,0
2017-05-23T01:22:10.567Z,0
2017-05-23T01:23:20.627Z,0
2017-05-23T01:24:30.243Z,0
2017-05-23T01:25:40.463Z,0
2017-05-23T01:26:50.069Z,0
2017-05-23T01:27:59.979Z,0
2017-05-23T01:29:09.932Z,0
2017-05-23T01:30:19.870Z,0
2017-05-23T01:31:29.470Z,0
2017-05-23T01:32:39.077Z,0
2017-05-23T01:33:49.298Z,0
2017-05-23T01:34:59.432Z,0
2017-05-23T01:36:09.343Z,0
2017-05-23T01:37:19.248Z,0
2017-05-23T01:38:29.459Z,0
2017-05-23T01:39:39.378Z,0
2017-05-23T01:40:49.444Z,0
2017-05-23T01:41:59.056Z,0
2017-05-23T01:43:08.988Z,0
2017-05-23T01:44:18.891Z,0
2017-05-23T01:45:28.498Z,0
2017-05-23T01:46:38.336Z,0
2017-05-23T01:47:47.965Z,0
2017-05-23T01:48:57.568Z,0
2017-05-23T01:50:07.779Z,0
2017-05-23T01:51:18.008Z,0
2017-05-23T01:52:28.291Z,0
2017-05-23T01:53:38.234Z,0
2017-05-23T01:54:48.449Z,0
2017-05-23T01:55:58.676Z,0
2017-05-23T01:57:08.307Z,0
2017-05-23T01:58:18.092Z,0
2017-05-23T01:59:28.317Z,0
2017-05-23T02:00:38.242Z,0
2017-05-23T02:01:48.159Z,0
2017-05-23T02:02:58.082Z,0
2017-05-23T02:04:08.126Z,0
2017-05-23T02:05:17.738Z,0
2017-05-23T02:06:27.046Z,0
2017-05-23T02:07:36.654Z,0
2017-05-23T02:08:46.594Z,0
2017-05-23T02:09:56.915Z,0
2017-05-23T02:11:07.136Z,0
2017-05-23T02:12:17.033Z,0
2017-05-23T02:13:27.265Z,0
2017-05-23T02:14:37.248Z,0
2017-05-23T02:15:47.624Z,0
2017-05-23T02:16:57.837Z,0
2017-05-23T02:18:08.064Z,0
2017-05-23T02:19:17.995Z,0
2017-05-23T02:20:28.304Z,0
2017-05-23T02:21:38.325Z,0
2017-05-23T02:22:47.322Z,0
2017-05-23T02:23:57.239Z,0
2017-05-23T02:25:07.152Z,0
2017-05-23T02:26:17.079Z,0
2017-05-23T02:27:27.147Z,0
2017-05-23T02:28:37.369Z,0
2017-05-23T02:29:47.287Z,0
2017-05-23T02:30:56.971Z,0
2017-05-23T02:32:06.882Z,0
2017-05-23T02:33:17.086Z,0
2017-05-23T02:34:26.686Z,0
2017-05-23T02:35:36.290Z,0
2017-05-23T02:36:46.526Z,0
2017-05-23T02:37:55.824Z,0
2017-05-23T02:39:06.190Z,0
2017-05-23T02:40:16.108Z,0
2017-05-23T02:41:26.027Z,0
2017-05-23T02:42:35.638Z,0
2017-05-23T02:43:45.853Z,0
2017-05-23T02:44:55.559Z,0
2017-05-23T02:46:05.777Z,0
2017-05-23T02:47:15.689Z,0
2017-05-23T02:48:25.292Z,0
2017-05-23T02:49:34.908Z,0
2017-05-23T02:50:44.658Z,0
2017-05-23T02:51:54.881Z,0
2017-05-23T02:53:04.801Z,0
2017-05-23T02:54:14.406Z,0
2017-05-23T02:55:24.370Z,0
2017-05-23T02:56:33.809Z,0
2017-05-23T02:57:43.719Z,0
2017-05-23T02:58:53.013Z,0
2017-05-23T03:00:03.236Z,0
2017-05-23T03:01:13.453Z,0
2017-05-23T03:02:23.207Z,0
2017-05-23T03:03:32.496Z,0
2017-05-23T03:04:42.403Z,0
2017-05-23T03:05:52.341Z,0
2017-05-23T03:07:01.633Z,0
2017-05-23T03:08:11.901Z,0
2017-05-23T03:09:22.120Z,0
2017-05-23T03:10:32.062Z,0
2017-05-23T03:11:42.279Z,0
2017-05-23T03:12:51.897Z,0
2017-05-23T03:14:01.816Z,0
2017-05-23T03:15:12.045Z,0
2017-05-23T03:16:21.347Z,0
2017-05-23T03:17:31.575Z,0
2017-05-23T03:18:41.186Z,0
2017-05-23T03:19:51.503Z,0
2017-05-23T03:21:01.111Z,0
2017-05-23T03:22:10.714Z,0
2017-05-23T03:23:20.640Z,0
2017-05-23T03:24:30.857Z,0
2017-05-23T03:25:41.075Z,0
2017-05-23T03:26:50.984Z,0
2017-05-23T03:28:00.895Z,0
2017-05-23T03:29:10.501Z,0
2017-05-23T03:30:20.416Z,0
2017-05-23T03:31:30.344Z,0
2017-05-23T03:32:40.932Z,0
2017-05-23T03:33:50.853Z,0
2017-05-23T03:35:01.074Z,0
2017-05-23T03:36:11.319Z,0
2017-05-23T03:37:20.922Z,0
2017-05-23T03:38:31.158Z,0
2017-05-23T03:39:41.381Z,0
2017-05-23T03:40:50.998Z,0
2017-05-23T03:42:01.216Z,0
2017-05-23T03:43:11.230Z,0
2017-05-23T03:44:21.471Z,0
2017-05-23T03:45:31.069Z,0
2017-05-23T03:46:41.284Z,0
2017-05-23T03:47:51.279Z,0
2017-05-23T03:49:01.192Z,0
2017-05-23T03:50:11.487Z,0
2017-05-23T03:51:21.090Z,0
2017-05-23T03:52:30.993Z,0
2017-05-23T03:53:40.910Z,0
2017-05-23T03:54:50.828Z,0
2017-05-23T03:56:00.133Z,0
2017-05-23T03:57:10.368Z,0
2017-05-23T03:58:20.599Z,0
2017-05-23T03:59:30.529Z,0
2017-05-23T04:00:39.994Z,0
2017-05-23T04:01:49.919Z,0
2017-05-23T04:02:59.852Z,0
2017-05-23T04:04:10.074Z,0
2017-05-23T04:05:19.988Z,0
2017-05-23T04:06:29.756Z,0
2017-05-23T04:07:39.391Z,0
2017-05-23T04:08:48.989Z,5
2017-05-23T04:09:58.917Z,5
2017-05-23T04:11:09.142Z,5
2017-05-23T04:12:19.357Z,5
2017-05-23T04:13:29.274Z,5
2017-05-23T04:14:39.213Z,5
2017-05-23T04:15:48.820Z,5
2017-05-23T04:16:59.049Z,5
2017-05-23T04:18:09.118Z,5
2017-05-23T04:19:19.337Z,5
2017-05-23T04:20:28.946Z,5
2017-05-23T04:21:38.559Z,5
2017-05-23T04:22:48.796Z,5
2017-05-23T04:23:59.176Z,5
2017-05-23T04:25:09.085Z,5
2017-05-23T04:26:19.032Z,5
2017-05-23T04:27:28.942Z,5
2017-05-23T04:28:39.158Z,5
2017-05-23T04:29:48.767Z,5
2017-05-23T04:30:58.700Z,5
2017-05-23T04:32:08.923Z,5
2017-05-23T04:33:18.834Z,5
2017-05-23T04:34:28.436Z,5
2017-05-23T04:35:38.816Z,5
2017-05-23T04:36:48.737Z,10
2017-05-23T04:37:58.954Z,10
2017-05-23T04:39:08.878Z,10
2017-05-23T04:40:18.816Z,10
2017-05-23T04:41:28.436Z,10
2017-05-23T04:42:38.046Z,10
2017-05-23T04:43:47.677Z,10
2017-05-23T04:44:57.621Z,10
2017-05-23T04:46:07.556Z,10
2017-05-23T04:47:17.192Z,10
2017-05-23T04:48:27.128Z,10
2017-05-23T04:49:37.361Z,10
2017-05-23T04:50:47.275Z,10
2017-05-23T04:51:57.179Z,10
2017-05-23T04:53:06.891Z,10
2017-05-23T04:54:16.841Z,10
2017-05-23T04:55:26.766Z,15
2017-05-23T04:56:36.692Z,15
2017-05-23T04:57:46.309Z,15
2017-05-23T04:58:56.529Z,15
2017-05-23T05:00:06.456Z,15
2017-05-23T05:01:16.096Z,15
2017-05-23T05:02:25.724Z,15
2017-05-23T05:03:35.957Z,15
2017-05-23T05:04:45.737Z,20
2017-05-23T05:05:55.348Z,20
2017-05-23T05:07:05.590Z,20
2017-05-23T05:08:15.519Z,20
2017-05-23T05:09:25.782Z,25
2017-05-23T05:10:36.008Z,25
2017-05-23T05:11:45.920Z,30
2017-05-23T05:12:55.867Z,35
2017-05-23T05:14:06.083Z,35
2017-05-23T05:15:15.689Z,40
2017-05-23T05:16:25.453Z,40
2017-05-23T05:17:35.677Z,40
2017-05-23T05:18:45.583Z,40
2017-05-23T05:19:55.812Z,40
2017-05-23T05:21:05.422Z,40
2017-05-23T05:22:15.503Z,45
2017-05-23T05:23:25.111Z,45
2017-05-23T05:24:35.045Z,45
2017-05-23T05:25:45.262Z,45
2017-05-23T05:26:55.480Z,45
2017-05-23T05:28:05.394Z,45
2017-05-23T05:29:15.309Z,45
2017-05-23T05:30:24.916Z,45
2017-05-23T05:31:34.210Z,45
2017-05-23T05:32:44.435Z,45
2017-05-23T05:33:54.503Z,45
2017-05-23T05:35:04.426Z,45
2017-05-23T05:36:14.368Z,50
2017-05-23T05:37:23.977Z,50
2017-05-23T05:38:33.602Z,50
2017-05-23T05:39:43.361Z,50
2017-05-23T05:40:52.967Z,50
2017-05-23T05:42:02.265Z,50
2017-05-23T05:43:12.182Z,50
2017-05-23T05:44:22.119Z,50
2017-05-23T05:45:32.366Z,50
2017-05-23T05:46:41.980Z,50
2017-05-23T05:47:51.893Z,50
2017-05-23T05:49:01.496Z,50
2017-05-23T05:50:10.793Z,50
2017-05-23T05:51:21.223Z,55
2017-05-23T05:52:31.226Z,55
2017-05-23T05:53:40.871Z,55
2017-05-23T05:54:50.792Z,55
2017-05-23T05:56:01.039Z,55
2017-05-23T05:57:10.970Z,55
2017-05-23T05:58:20.569Z,55
2017-05-23T05:59:30.783Z,55
2017-05-23T06:00:41.000Z,60
2017-05-23T06:01:51.611Z,90
2017-05-23T06:03:02.146Z,85
2017-05-23T06:04:12.054Z,70
2017-05-23T06:05:21.347Z,60
2017-05-23T06:06:30.953Z,60
2017-05-23T06:07:41.168Z,60
2017-05-23T06:08:51.256Z,60
2017-05-23T06:10:01.179Z,65
2017-05-23T06:11:11.101Z,70
2017-05-23T06:12:20.713Z,75
2017-05-23T06:13:30.699Z,80
2017-05-23T06:14:41.288Z,80
2017-05-23T06:15:50.601Z,85
2017-05-23T06:17:00.521Z,80
2017-05-23T06:18:10.448Z,65
2017-05-23T06:19:20.376Z,50
2017-05-23T06:20:30.470Z,40
2017-05-23T06:21:40.388Z,65
2017-05-23T06:22:50.312Z,85
2017-05-23T06:24:00.236Z,85
2017-05-23T06:25:10.164Z,90
2017-05-23T06:26:19.475Z,85
2017-05-23T06:27:29.086Z,75
2017-05-23T06:28:38.999Z,70
2017-05-23T06:29:49.232Z,70
2017-05-23T06:30:59.496Z,55
2017-05-23T06:32:09.820Z,65
2017-05-23T06:33:19.748Z,65
2017-05-23T06:34:29.973Z,50
2017-05-23T06:35:39.890Z,55
2017-05-23T06:36:49.810Z,60
2017-05-23T06:37:59.265Z,55
2017-05-23T06:39:09.193Z,55
2017-05-23T06:40:18.808Z,50
2017-05-23T06:41:28.740Z,50
2017-05-23T06:42:38.686Z,55
2017-05-23T06:43:48.445Z,60
2017-05-23T06:44:58.048Z,60
2017-05-23T06:46:08.257Z,65
2017-05-23T06:47:17.879Z,70
2017-05-23T06:48:27.495Z,65
2017-05-23T06:49:37.484Z,60
2017-05-23T06:50:47.100Z,65
2017-05-23T06:51:57.012Z,95
2017-05-23T06:53:06.628Z,85
2017-05-23T06:54:16.576Z,100
2017-05-23T06:55:26.641Z,105
2017-05-23T06:56:35.936Z,105
2017-05-23T06:57:45.860Z,115
2017-05-23T06:58:56.083Z,105
2017-05-23T07:00:05.682Z,125
2017-05-23T07:01:15.312Z,115
2017-05-23T07:02:24.922Z,115
2017-05-23T07:03:34.856Z,120
2017-05-23T07:04:46.590Z,115
2017-05-23T07:05:57.136Z,130
2017-05-23T07:07:06.834Z,130
2017-05-23T07:08:16.753Z,140
2017-05-23T07:09:26.438Z,135
2017-05-23T07:10:36.626Z,140
2017-05-23T07:11:46.243Z,150
2017-05-23T07:12:56.162Z,160
2017-05-23T07:14:06.099Z,175
2017-05-23T07:15:15.726Z,270
2017-05-23T07:16:25.350Z,205
2017-05-23T07:17:35.042Z,210
2017-05-23T07:18:44.459Z,245
2017-05-23T07:19:54.711Z,370
2017-05-23T07:21:04.936Z,545
2017-05-23T07:22:14.546Z,725
2017-05-23T07:23:24.467Z,740
2017-05-23T07:24:34.758Z,610
2017-05-23T07:25:44.989Z,630
2017-05-23T07:26:54.594Z,615
2017-05-23T07:28:04.507Z,530
2017-05-23T07:29:14.429Z,605
2017-05-23T07:30:24.499Z,670
2017-05-23T07:31:34.412Z,670
2017-05-23T07:32:44.665Z,635
2017-05-23T07:33:54.910Z,760
2017-05-23T07:35:04.523Z,710
2017-05-23T07:36:14.806Z,675
2017-05-23T07:37:25.101Z,860
2017-05-23T07:38:35.033Z,805
2017-05-23T07:39:44.385Z,720
2017-05-23T07:40:54.013Z,880
2017-05-23T07:42:03.929Z,830
2017-05-23T07:43:13.537Z,810
2017-05-23T07:44:23.780Z,930
2017-05-23T07:45:33.427Z,890
2017-05-23T07:46:43.041Z,750
2017-05-23T07:47:53.429Z,775
2017-05-23T07:49:03.355Z,805
2017-05-23T07:50:13.583Z,955
2017-05-23T07:51:23.488Z,895
2017-05-23T07:52:33.423Z,970
2017-05-23T07:53:43.818Z,885
2017-05-23T07:54:53.436Z,770
2017-05-23T07:56:03.413Z,905
2017-05-23T07:57:13.643Z,1000
2017-05-23T07:58:23.267Z,1030
2017-05-23T07:59:32.419Z,1100
2017-05-23T08:00:41.735Z,1175
2017-05-23T08:01:51.961Z,1200
2017-05-23T08:03:02.205Z,1050
2017-05-23T08:04:11.829Z,1135
2017-05-23T08:05:21.909Z,995
2017-05-23T08:06:31.840Z,965
2017-05-23T08:07:41.453Z,885
2017-05-23T08:08:51.689Z,960
2017-05-23T08:10:01.617Z,1080
2017-05-23T08:11:11.891Z,1185
2017-05-23T08:12:22.145Z,1210
2017-05-23T08:13:32.389Z,1015
2017-05-23T08:14:42.003Z,975
2017-05-23T08:15:51.613Z,915
2017-05-23T08:17:01.224Z,965
2017-05-23T08:18:11.480Z,1105
2017-05-23T08:19:21.401Z,1070
2017-05-23T08:20:31.628Z,1000
2017-05-23T08:21:41.221Z,855
2017-05-23T08:22:50.521Z,535
2017-05-23T08:24:00.138Z,830
2017-05-23T08:25:09.779Z,1055
2017-05-23T08:26:19.700Z,1010
2017-05-23T08:27:29.931Z,1080
2017-05-23T08:28:40.010Z,1130
2017-05-23T08:29:49.953Z,1070
2017-05-23T08:30:59.897Z,1000
2017-05-23T08:32:10.122Z,765
2017-05-23T08:33:20.111Z,920
2017-05-23T08:34:29.736Z,905
2017-05-23T08:35:39.349Z,1105
2017-05-23T08:36:49.330Z,980
2017-05-23T08:37:58.945Z,1050
2017-05-23T08:39:08.863Z,930
2017-05-23T08:40:18.179Z,975
2017-05-23T08:41:28.113Z,1055
2017-05-23T08:42:38.034Z,1180
2017-05-23T08:43:48.297Z,1090
2017-05-23T08:44:58.223Z,960
2017-05-23T08:46:08.293Z,835
2017-05-23T08:47:18.544Z,820
2017-05-23T08:48:28.462Z,985
2017-05-23T08:49:38.692Z,910
2017-05-23T08:50:48.307Z,685
2017-05-23T08:51:58.393Z,320
2017-05-23T08:53:08.322Z,145
2017-05-23T08:54:17.942Z,125
2017-05-23T08:55:27.872Z,115
2017-05-23T08:56:37.484Z,110
2017-05-23T08:57:47.590Z,110
2017-05-23T08:58:57.523Z,100
2017-05-23T09:00:07.125Z,85
2017-05-23T09:01:16.115Z,90
2017-05-23T09:02:26.405Z,105
2017-05-23T09:03:36.370Z,80
2017-05-23T09:04:46.657Z,55
2017-05-23T09:05:56.590Z,60
2017-05-23T09:07:05.898Z,65
2017-05-23T09:08:15.215Z,110
2017-05-23T09:09:25.000Z,75
2017-05-23T09:10:34.668Z,60
2017-05-23T09:11:44.907Z,70
2017-05-23T09:12:54.543Z,75
2017-05-23T09:14:03.844Z,70
2017-05-23T09:15:13.465Z,70
2017-05-23T09:16:23.384Z,70
2017-05-23T09:17:33.613Z,65
2017-05-23T09:18:43.840Z,65
2017-05-23T09:19:53.769Z,70
2017-05-23T09:21:03.687Z,70
2017-05-23T09:22:13.080Z,70
2017-05-23T09:23:23.007Z,65
2017-05-23T09:24:32.674Z,70
2017-05-23T09:25:42.285Z,65
2017-05-23T09:26:52.555Z,70
2017-05-23T09:28:02.177Z,60
2017-05-23T09:29:12.413Z,70
2017-05-23T09:30:22.637Z,60
2017-05-23T09:31:32.874Z,55
2017-05-23T09:32:42.967Z,45
2017-05-23T09:33:52.283Z,35
2017-05-23T09:35:02.501Z,60
2017-05-23T09:36:12.153Z,65
2017-05-23T09:37:22.450Z,60
2017-05-23T09:38:32.676Z,55
2017-05-23T09:39:42.292Z,45
2017-05-23T09:40:52.217Z,60
2017-05-23T09:42:01.539Z,55
2017-05-23T09:43:11.483Z,50
2017-05-23T09:44:21.400Z,50
2017-05-23T09:45:31.622Z,45
2017-05-23T09:46:41.854Z,40
2017-05-23T09:47:51.471Z,40
2017-05-23T09:49:01.714Z,45
2017-05-23T09:50:11.176Z,45
2017-05-23T09:51:21.142Z,45
2017-05-23T09:52:31.378Z,45
2017-05-23T09:53:41.616Z,45
2017-05-23T09:54:51.544Z,45
2017-05-23T09:56:01.222Z,40
2017-05-23T09:57:11.151Z,40
2017-05-23T09:58:21.397Z,45
2017-05-23T09:59:31.330Z,45
2017-05-23T10:00:41.243Z,45
2017-05-23T10:01:51.158Z,40
2017-05-23T10:03:01.092Z,45
2017-05-23T10:04:11.041Z,45
2017-05-23T10:05:20.979Z,40
2017-05-23T10:06:30.591Z,40
2017-05-23T10:07:40.009Z,45
2017-05-23T10:08:50.239Z,45
2017-05-23T10:09:59.856Z,45
2017-05-23T10:11:09.161Z,40
2017-05-23T10:12:19.075Z,40
2017-05-23T10:13:29.158Z,35
2017-05-23T10:14:39.390Z,35
2017-05-23T10:15:49.311Z,35
2017-05-23T10:16:59.243Z,40
2017-05-23T10:18:08.858Z,35
2017-05-23T10:19:18.477Z,35
2017-05-23T10:20:28.403Z,35
2017-05-23T10:21:38.013Z,35
2017-05-23T10:22:47.647Z,40
2017-05-23T10:23:57.256Z,40
2017-05-23T10:25:07.650Z,40
2017-05-23T10:26:17.588Z,40
2017-05-23T10:27:27.512Z,40
2017-05-23T10:28:37.134Z,35
2017-05-23T10:29:47.095Z,40
2017-05-23T10:30:57.163Z,45
2017-05-23T10:32:07.383Z,45
2017-05-23T10:33:16.991Z,45
2017-05-23T10:34:26.379Z,45
2017-05-23T10:35:36.619Z,45
2017-05-23T10:36:47.000Z,40
2017-05-23T10:37:56.928Z,45
2017-05-23T10:39:06.553Z,45
2017-05-23T10:40:16.161Z,45
2017-05-23T10:41:25.160Z,45
2017-05-23T10:42:34.919Z,40
2017-05-23T10:43:45.152Z,30
2017-05-23T10:44:55.086Z,35
2017-05-23T10:46:04.712Z,40
2017-05-23T10:47:14.629Z,45
2017-05-23T10:48:24.598Z,40
2017-05-23T10:49:34.209Z,40
2017-05-23T10:50:43.898Z,35
2017-05-23T10:51:53.828Z,30
2017-05-23T10:53:03.760Z,35
2017-05-23T10:54:13.811Z,35
2017-05-23T10:55:23.103Z,40
2017-05-23T10:56:32.404Z,40
2017-05-23T10:57:42.648Z,40
2017-05-23T10:58:52.576Z,40
2017-05-23T11:00:02.188Z,40
2017-05-23T11:01:12.118Z,40
2017-05-23T11:02:21.800Z,40
2017-05-23T11:03:31.108Z,35
2017-05-23T11:04:40.726Z,35
2017-05-23T11:05:50.795Z,35
2017-05-23T11:07:00.119Z,35
2017-05-23T11:08:09.736Z,35
2017-05-23T11:09:19.957Z,35
2017-05-23T11:10:29.878Z,35
2017-05-23T11:11:40.042Z,35
2017-05-23T11:12:50.534Z,40
2017-05-23T11:14:00.828Z,35
2017-05-23T11:15:11.051Z,30
2017-05-23T11:16:20.975Z,30
2017-05-23T11:17:30.687Z,35
2017-05-23T11:18:40.002Z,35
2017-05-23T11:19:50.240Z,30
2017-05-23T11:21:00.466Z,35
2017-05-23T11:22:10.401Z,35
2017-05-23T11:23:20.797Z,35
2017-05-23T11:24:30.723Z,35
2017-05-23T11:25:40.329Z,40
2017-05-23T11:26:50.555Z,45
2017-05-23T11:27:59.875Z,45
2017-05-23T11:29:09.851Z,40
2017-05-23T11:30:19.777Z,45
2017-05-23T11:31:29.710Z,40
2017-05-23T11:32:39.633Z,40
2017-05-23T11:33:49.856Z,40
2017-05-23T11:34:59.475Z,40
2017-05-23T11:36:09.147Z,40
2017-05-23T11:37:19.078Z,40
2017-05-23T11:38:29.031Z,40
2017-05-23T11:39:38.963Z,40
2017-05-23T11:40:48.574Z,40
2017-05-23T11:41:58.205Z,40
2017-05-23T11:43:08.136Z,35
2017-05-23T11:44:17.761Z,35
2017-05-23T11:45:27.985Z,30
2017-05-23T11:46:37.290Z,30
2017-05-23T11:47:46.903Z,30
2017-05-23T11:48:56.893Z,35
2017-05-23T11:50:06.828Z,30
2017-05-23T11:51:16.813Z,30
2017-05-23T11:52:27.096Z,30
2017-05-23T11:53:37.335Z,35
2017-05-23T11:54:47.263Z,35
2017-05-23T11:55:56.570Z,35
2017-05-23T11:57:06.499Z,35
2017-05-23T11:58:16.416Z,35
2017-05-23T11:59:26.678Z,30
2017-05-23T12:00:36.909Z,30
2017-05-23T12:01:45.910Z,30
2017-05-23T12:02:55.926Z,30
2017-05-23T12:04:05.847Z,35
2017-05-23T12:05:15.791Z,30
2017-05-23T12:06:25.920Z,30
2017-05-23T12:07:36.143Z,30
2017-05-23T12:08:46.095Z,35
2017-05-23T12:09:56.066Z,30
2017-05-23T12:11:06.368Z,25
2017-05-23T12:12:15.672Z,30
2017-05-23T12:13:24.981Z,30
2017-05-23T12:14:34.918Z,35
2017-05-23T12:15:44.530Z,35
2017-05-23T12:16:54.436Z,30
2017-05-23T12:18:04.040Z,30
2017-05-23T12:19:13.971Z,25
2017-05-23T12:20:23.887Z,20
2017-05-23T12:21:33.807Z,25
2017-05-23T12:22:43.115Z,30
2017-05-23T12:23:52.455Z,25
2017-05-23T12:25:02.676Z,25
2017-05-23T12:26:12.613Z,30
2017-05-23T12:27:22.693Z,30
2017-05-23T12:28:32.616Z,30
2017-05-23T12:29:42.525Z,30
2017-05-23T12:30:52.452Z,30
2017-05-23T12:32:02.699Z,35
2017-05-23T12:33:12.331Z,35
2017-05-23T12:34:22.274Z,35
2017-05-23T12:35:32.190Z,35
2017-05-23T12:36:42.432Z,35
2017-05-23T12:37:52.060Z,35
2017-05-23T12:39:01.979Z,35
2017-05-23T12:40:11.918Z,35
2017-05-23T12:41:22.155Z,30
2017-05-23T12:42:31.469Z,30
2017-05-23T12:43:41.384Z,30
2017-05-23T12:44:51.073Z,35
2017-05-23T12:46:00.082Z,40
2017-05-23T12:47:09.782Z,35
2017-05-23T12:48:20.014Z,35
2017-05-23T12:49:29.948Z,35
2017-05-23T12:50:39.266Z,30
2017-05-23T12:51:48.886Z,30
2017-05-23T12:52:58.503Z,35
2017-05-23T12:54:08.127Z,35
2017-05-23T12:55:17.135Z,40
2017-05-23T12:56:26.424Z,35
2017-05-23T12:57:36.029Z,30
2017-05-23T12:58:45.960Z,30
2017-05-23T12:59:55.883Z,35
2017-05-23T13:01:05.508Z,35
2017-05-23T13:02:14.822Z,35
2017-05-23T13:03:24.465Z,35
2017-05-23T13:04:34.720Z,30
2017-05-23T13:05:44.644Z,30
2017-05-23T13:06:54.582Z,30
2017-05-23T13:08:04.809Z,35
2017-05-23T13:09:15.051Z,35
2017-05-23T13:10:24.048Z,35
2017-05-23T13:11:33.988Z,35
2017-05-23T13:12:43.627Z,35
2017-05-23T13:13:53.868Z,30
2017-05-23T13:15:03.800Z,30
2017-05-23T13:16:13.741Z,30
2017-05-23T13:17:23.664Z,30
2017-05-23T13:18:32.970Z,30
2017-05-23T13:19:42.900Z,30
2017-05-23T13:20:52.225Z,30
2017-05-23T13:22:01.535Z,30
2017-05-23T13:23:11.194Z,30
2017-05-23T13:24:20.499Z,30
2017-05-23T13:25:30.429Z,25
2017-05-23T13:26:40.365Z,20
2017-05-23T13:27:50.298Z,15
2017-05-23T13:28:59.928Z,15
2017-05-23T13:30:09.867Z,20
2017-05-23T13:31:19.173Z,25
2017-05-23T13:32:29.395Z,25
2017-05-23T13:33:39.634Z,25
2017-05-23T13:34:48.933Z,30
2017-05-23T13:35:58.851Z,35
2017-05-23T13:37:09.094Z,35
2017-05-23T13:38:19.330Z,35
2017-05-23T13:39:29.623Z,35
2017-05-23T13:40:39.248Z,35
2017-05-23T13:41:49.490Z,40
2017-05-23T13:42:59.427Z,40
2017-05-23T13:44:09.052Z,35
2017-05-23T13:45:18.682Z,35
2017-05-23T13:46:28.304Z,35
2017-05-23T13:47:37.917Z,35
2017-05-23T13:48:47.225Z,40
2017-05-23T13:49:56.836Z,35
2017-05-23T13:51:06.149Z,40
2017-05-23T13:52:15.781Z,35
2017-05-23T13:53:25.403Z,35
2017-05-23T13:54:35.629Z,30
2017-05-23T13:55:44.955Z,30
2017-05-23T13:56:54.883Z,30
2017-05-23T13:58:04.526Z,25
2017-05-23T13:59:14.753Z,25
2017-05-23T14:00:24.368Z,30
2017-05-23T14:01:33.982Z,30
2017-05-23T14:02:43.905Z,25
2017-05-23T14:03:53.819Z,25
2017-05-23T14:05:03.738Z,25
2017-05-23T14:06:12.735Z,30
2017-05-23T14:07:22.354Z,30
2017-05-23T14:08:31.968Z,25
2017-05-23T14:09:41.580Z,25
2017-05-23T14:10:51.199Z,20
2017-05-23T14:12:01.516Z,25
2017-05-23T14:13:11.489Z,20
2017-05-23T14:14:20.805Z,25
2017-05-23T14:15:31.022Z,30
2017-05-23T14:16:40.939Z,30
2017-05-23T14:17:50.872Z,35
2017-05-23T14:19:01.187Z,35
2017-05-23T14:20:10.800Z,35
2017-05-23T14:21:20.416Z,30
2017-05-23T14:22:30.351Z,30
2017-05-23T14:23:39.983Z,30
2017-05-23T14:24:49.613Z,30
2017-05-23T14:25:59.217Z,30
2017-05-23T14:27:09.154Z,30
2017-05-23T14:28:19.069Z,30
2017-05-23T14:29:28.986Z,25
2017-05-23T14:30:38.292Z,25
2017-05-23T14:31:47.901Z,20
2017-05-23T14:32:57.524Z,20
2017-05-23T14:34:07.768Z,20
2017-05-23T14:35:17.698Z,20
2017-05-23T14:36:27.641Z,15
2017-05-23T14:37:37.589Z,15
2017-05-23T14:38:47.205Z,15
2017-05-23T14:39:56.814Z,15
2017-05-23T14:41:06.433Z,15
2017-05-23T14:42:15.738Z,15
2017-05-23T14:43:25.966Z,20
2017-05-23T14:44:35.887Z,20
2017-05-23T14:45:45.501Z,25
2017-05-23T14:46:55.129Z,25
2017-05-23T14:48:04.740Z,30
2017-05-23T14:49:14.353Z,35
2017-05-23T14:50:24.058Z,30
2017-05-23T14:51:33.979Z,30
2017-05-23T14:52:43.287Z,30
2017-05-23T14:53:53.217Z,25
2017-05-23T14:55:03.465Z,25
2017-05-23T14:56:13.697Z,25
2017-05-23T14:57:23.314Z,25
2017-05-23T14:58:32.619Z,25
2017-05-23T14:59:42.247Z,30
2017-05-23T15:00:52.184Z,25
2017-05-23T15:02:01.805Z,30
2017-05-23T15:03:11.724Z,30
2017-05-23T15:04:21.638Z,30
2017-05-23T15:05:31.243Z,30
2017-05-23T15:06:41.485Z,30
2017-05-23T15:07:51.723Z,30
2017-05-23T15:09:01.357Z,30
2017-05-23T15:10:10.995Z,25
2017-05-23T15:11:20.628Z,20
2017-05-23T15:12:30.582Z,20
2017-05-23T15:13:40.210Z,20
2017-05-23T15:14:50.173Z,20
2017-05-23T15:16:00.392Z,25
2017-05-23T15:17:10.638Z,30
2017-05-23T15:18:20.887Z,30
2017-05-23T15:19:30.529Z,25
2017-05-23T15:20:40.761Z,25
2017-05-23T15:21:50.981Z,20
2017-05-23T15:23:00.942Z,20
2017-05-23T15:24:11.212Z,20
2017-05-23T15:25:20.840Z,20
2017-05-23T15:26:30.785Z,20
2017-05-23T15:27:40.721Z,20
2017-05-23T15:28:50.767Z,20
2017-05-23T15:30:00.724Z,20
2017-05-23T15:31:10.338Z,20
2017-05-23T15:32:20.578Z,20
2017-05-23T15:33:30.832Z,20
2017-05-23T15:34:40.750Z,20
2017-05-23T15:35:50.993Z,20
2017-05-23T15:37:00.609Z,20
2017-05-23T15:38:10.222Z,20
2017-05-23T15:39:20.450Z,20
2017-05-23T15:40:30.079Z,20
2017-05-23T15:41:39.986Z,25
2017-05-23T15:42:49.925Z,20
2017-05-23T15:43:59.852Z,20
2017-05-23T15:45:09.164Z,20
2017-05-23T15:46:18.783Z,20
2017-05-23T15:47:29.017Z,20
2017-05-23T15:48:38.644Z,20
2017-05-23T15:49:48.287Z,20
2017-05-23T15:50:58.510Z,20
2017-05-23T15:52:08.163Z,20
2017-05-23T15:53:17.816Z,20
2017-05-23T15:54:27.447Z,25
2017-05-23T15:55:37.682Z,25
2017-05-23T15:56:47.922Z,25
2017-05-23T15:57:57.249Z,20
2017-05-23T15:59:07.475Z,20
2017-05-23T16:00:16.770Z,20
2017-05-23T16:01:26.388Z,20
2017-05-23T16:02:35.999Z,20
2017-05-23T16:03:45.905Z,20
2017-05-23T16:04:55.210Z,20
2017-05-23T16:06:05.137Z,20
2017-05-23T16:07:15.074Z,20
2017-05-23T16:08:24.990Z,20
2017-05-23T16:09:34.987Z,15
2017-05-23T16:10:44.900Z,15
2017-05-23T16:11:54.824Z,15
2017-05-23T16:13:04.426Z,15
2017-05-23T16:14:14.330Z,15
2017-05-23T16:15:24.548Z,20
2017-05-23T16:16:34.771Z,20
2017-05-23T16:17:44.696Z,20
2017-05-23T16:18:54.006Z,20
2017-05-23T16:20:03.617Z,15
2017-05-23T16:21:13.838Z,15
2017-05-23T16:22:23.758Z,15
2017-05-23T16:23:33.381Z,15
2017-05-23T16:24:43.297Z,15
2017-05-23T16:25:53.215Z,15
2017-05-23T16:27:03.123Z,15
2017-05-23T16:28:12.420Z,15
2017-05-23T16:29:22.644Z,15
2017-05-23T16:30:32.911Z,15
2017-05-23T16:31:43.139Z,15
2017-05-23T16:32:53.371Z,15
2017-05-23T16:34:02.996Z,15
2017-05-23T16:35:12.938Z,15
2017-05-23T16:36:22.901Z,15
2017-05-23T16:37:33.155Z,15
2017-05-23T16:38:42.795Z,15
2017-05-23T16:39:53.022Z,15
2017-05-23T16:41:02.942Z,15
2017-05-23T16:42:13.166Z,15
2017-05-23T16:43:22.785Z,15
2017-05-23T16:44:33.011Z,15
2017-05-23T16:45:43.235Z,15